Time;durP1;ratioP1;P1;durP2;ratioP2;P2;SDS_P1;SDS_P2;PMS_P1;PMS_P2;Temp;Humidity;BMP_temperature;BMP_pressure;BME280_temperature;BME280_humidity;BME280_pressure;Samples;Min_cycle;Max_cycle;Signal;HPM_P1;HPM_P2
2022/01/24 00:09:21;;;;;;;8.70;2.78;;;6.40;99.90;;;;;;20806468;28;20489;-45
2022/01/24 00:29:27;;;;;;;7.00;3.17;;;6.50;99.90;;;;;;20811046;28;20037;-45
2022/01/24 00:39:28;;;;;;;9.10;2.95;;;6.40;99.90;;;;;;20803633;28;20370;-45
2022/01/24 00:49:52;;;;;;;4.30;2.22;;;6.40;99.90;;;;;;20805688;28;20048;-45
2022/01/24 00:59:53;;;;;;;8.98;3.25;;;6.40;99.90;;;;;;20803590;28;20140;-45
2022/01/24 01:20:17;;;;;;;5.35;2.08;;;6.40;99.90;;;;;;20806414;28;20069;-45
2022/01/24 01:30:22;;;;;;;8.52;2.58;;;6.30;99.90;;;;;;20827091;28;20144;-45
2022/01/24 02:00:49;;;;;;;7.15;2.85;;;6.30;99.90;;;;;;20832025;28;20068;-45
2022/01/24 02:10:51;;;;;;;11.85;4.20;;;6.20;99.90;;;;;;20810212;28;20549;-45
2022/01/24 02:21:09;;;;;;;6.57;2.70;;;6.30;99.90;;;;;;20820138;28;20473;-45
2022/01/24 02:31:38;;;;;;;9.82;3.40;;;6.30;99.90;;;;;;20802982;28;20326;-45
2022/01/24 02:52:11;;;;;;;12.55;5.10;;;6.10;99.90;;;;;;20825218;28;20072;-45
2022/01/24 03:02:12;;;;;;;11.25;4.78;;;6.20;99.90;;;;;;20821660;28;20561;-45
2022/01/24 03:12:14;;;;;;;11.85;4.03;;;6.10;99.90;;;;;;20819961;28;20520;-45
2022/01/24 03:22:16;;;;;;;11.98;4.25;;;6.10;99.90;;;;;;20798203;28;20420;-45
2022/01/24 03:32:16;;;;;;;13.13;4.22;;;6.10;99.90;;;;;;20827617;28;20075;-45
2022/01/24 03:42:17;;;;;;;11.48;5.57;;;6.10;99.90;;;;;;20814011;28;20122;-45
2022/01/24 03:52:19;;;;;;;13.57;4.47;;;6.10;99.90;;;;;;20806637;28;20044;-45
2022/01/24 04:02:26;;;;;;;16.25;5.97;;;6.10;99.90;;;;;;20806358;28;20562;-45
2022/01/24 04:12:27;;;;;;;15.98;6.80;;;6.10;99.90;;;;;;20805970;28;20120;-45
2022/01/24 04:22:33;;;;;;;16.80;6.47;;;6.00;99.90;;;;;;20814224;28;20049;-45
2022/01/24 04:32:34;;;;;;;19.90;7.22;;;6.00;99.90;;;;;;20809325;28;20599;-45
2022/01/24 04:42:45;;;;;;;19.58;7.20;;;5.90;99.90;;;;;;20801912;28;21004;-45
2022/01/24 04:53:06;;;;;;;24.40;8.07;;;5.90;99.90;;;;;;20807341;28;20057;-45
2022/01/24 05:03:07;;;;;;;21.70;8.02;;;5.90;99.90;;;;;;20825754;28;20076;-45
2022/01/24 05:23:35;;;;;;;21.05;7.82;;;5.90;99.90;;;;;;20797631;28;20077;-45
2022/01/24 05:33:35;;;;;;;28.73;9.07;;;5.80;99.90;;;;;;20829665;28;20051;-45
2022/01/24 05:43:36;;;;;;;20.13;7.65;;;5.80;99.90;;;;;;20805408;28;20053;-45
2022/01/24 05:53:37;;;;;;;27.60;8.82;;;5.80;99.90;;;;;;20799900;28;20449;-45
2022/01/24 06:03:37;;;;;;;29.17;9.37;;;5.80;99.90;;;;;;20818236;28;20048;-45
2022/01/24 06:13:38;;;;;;;21.80;8.40;;;5.80;99.90;;;;;;20816103;28;20040;-45
2022/01/24 06:23:39;;;;;;;23.90;8.80;;;5.80;99.90;;;;;;20795373;28;20255;-45
2022/01/24 06:33:40;;;;;;;25.40;8.45;;;5.70;99.90;;;;;;20814174;28;20045;-45
2022/01/24 06:43:41;;;;;;;20.30;8.55;;;5.70;99.90;;;;;;20812429;28;20476;-45
2022/01/24 06:53:43;;;;;;;21.20;6.82;;;5.70;99.90;;;;;;20815991;28;20496;-45
2022/01/24 07:03:43;;;;;;;23.85;9.23;;;5.60;99.90;;;;;;20788605;28;20477;-45
2022/01/24 07:13:45;;;;;;;22.73;8.93;;;5.60;99.90;;;;;;20799411;28;20045;-45
2022/01/24 07:23:45;;;;;;;22.58;7.57;;;5.60;99.90;;;;;;20797284;28;20351;-45
2022/01/24 07:33:46;;;;;;;21.60;7.87;;;5.60;99.90;;;;;;20797784;28;20045;-45
2022/01/24 07:43:47;;;;;;;19.60;7.20;;;5.60;99.90;;;;;;20819322;28;20376;-45
2022/01/24 07:53:47;;;;;;;19.73;7.53;;;5.50;99.90;;;;;;20836944;28;20699;-45
2022/01/24 08:03:48;;;;;;;13.85;7.15;;;5.60;99.90;;;;;;20816014;28;20427;-45
2022/01/24 08:13:49;;;;;;;15.87;7.53;;;5.50;99.90;;;;;;20793941;28;20044;-45
2022/01/24 08:23:50;;;;;;;13.27;5.88;;;5.60;99.90;;;;;;20811359;28;20057;-45
2022/01/24 08:33:51;;;;;;;17.38;6.15;;;5.50;99.90;;;;;;20807676;28;20612;-45
2022/01/24 08:44:17;;;;;;;18.80;6.15;;;5.50;99.90;;;;;;20831196;28;20056;-45
2022/01/24 08:54:18;;;;;;;18.80;6.80;;;5.50;99.90;;;;;;20823001;28;20049;-45
2022/01/24 09:04:19;;;;;;;17.02;6.70;;;5.50;99.90;;;;;;20837202;28;20138;-45
2022/01/24 09:14:20;;;;;;;18.92;7.30;;;5.40;99.90;;;;;;20833402;28;20060;-45
2022/01/24 09:24:21;;;;;;;20.83;7.88;;;5.40;99.90;;;;;;20835000;28;20037;-45
2022/01/24 09:34:22;;;;;;;22.02;9.23;;;5.40;99.90;;;;;;20838623;28;20045;-45
2022/01/24 09:44:23;;;;;;;21.45;8.38;;;5.60;99.90;;;;;;20778036;28;1453082;-45
2022/01/24 09:54:43;;;;;;;21.30;8.50;;;5.60;99.90;;;;;;20782154;28;20045;-45
2022/01/24 10:04:44;;;;;;;20.23;8.55;;;5.60;99.90;;;;;;20847834;28;20029;-45
2022/01/24 10:25:11;;;;;;;22.58;8.02;;;5.70;99.90;;;;;;20796832;28;20029;-45
2022/01/24 10:35:21;;;;;;;24.02;7.40;;;5.80;99.90;;;;;;20781979;28;20068;-45
2022/01/24 10:45:25;;;;;;;22.73;8.15;;;5.70;99.90;;;;;;20824256;28;20045;-45
2022/01/24 10:55:28;;;;;;;22.13;7.15;;;5.70;99.90;;;;;;20775262;28;20095;-46
2022/01/24 11:05:39;;;;;;;21.75;8.10;;;5.70;99.90;;;;;;20817268;28;20041;-45
2022/01/24 11:15:46;;;;;;;19.52;7.32;;;5.80;99.90;;;;;;20801257;28;20564;-45
2022/01/24 11:25:49;;;;;;;18.77;8.07;;;5.90;99.90;;;;;;20810283;28;20040;-45
2022/01/24 11:35:54;;;;;;;19.50;7.30;;;5.80;99.90;;;;;;20817311;28;20041;-45
2022/01/24 11:46:01;;;;;;;18.42;7.38;;;5.80;99.90;;;;;;20812433;28;20583;-45
2022/01/24 11:56:26;;;;;;;19.83;8.35;;;5.80;99.90;;;;;;20786974;28;20056;-45
2022/01/24 12:06:27;;;;;;;17.00;6.82;;;5.80;99.90;;;;;;20808664;28;20111;-45
2022/01/24 12:16:43;;;;;;;15.90;7.38;;;5.90;99.90;;;;;;20822362;28;20049;-45
2022/01/24 12:26:49;;;;;;;15.77;5.93;;;5.80;99.90;;;;;;20840420;28;20040;-45
2022/01/24 12:37:04;;;;;;;14.40;5.72;;;5.80;99.90;;;;;;20793876;28;20045;-45
2022/01/24 12:47:10;;;;;;;15.70;5.30;;;5.80;99.90;;;;;;20760991;28;20404;-45
2022/01/24 12:57:16;;;;;;;15.55;6.72;;;5.70;99.90;;;;;;20795288;28;20425;-45
2022/01/24 13:07:17;;;;;;;14.73;5.20;;;5.80;99.90;;;;;;20776158;28;20042;-45
2022/01/24 13:27:44;;;;;;;13.98;5.93;;;5.80;99.90;;;;;;20787980;28;20046;-45
2022/01/24 13:37:45;;;;;;;15.32;6.28;;;5.80;99.90;;;;;;20815457;28;20056;-45
2022/01/24 13:47:58;;;;;;;10.23;4.55;;;5.80;99.90;;;;;;20780067;28;20044;-45
2022/01/24 13:57:59;;;;;;;16.77;7.07;;;5.70;99.90;;;;;;20793111;28;20413;-45
2022/01/24 14:08:17;;;;;;;10.25;4.13;;;5.70;99.90;;;;;;20799534;28;20030;-45
2022/01/24 14:18:28;;;;;;;14.73;5.23;;;5.60;99.90;;;;;;20812911;28;20045;-45
2022/01/24 14:28:29;;;;;;;12.07;4.57;;;5.60;99.90;;;;;;20792938;28;20041;-45
2022/01/24 14:38:41;;;;;;;12.20;4.82;;;5.60;99.90;;;;;;20789534;28;20047;-45
2022/01/24 14:48:53;;;;;;;11.40;4.07;;;5.60;99.90;;;;;;20798353;28;20389;-45
2022/01/24 14:58:55;;;;;;;10.10;4.05;;;5.40;99.90;;;;;;20786725;28;20037;-45
2022/01/24 15:09:00;;;;;;;12.48;4.85;;;5.40;99.90;;;;;;20794640;28;20587;-45
2022/01/24 15:29:20;;;;;;;9.82;4.40;;;5.50;99.90;;;;;;20795047;28;20041;-45
2022/01/24 15:39:21;;;;;;;10.93;4.68;;;5.50;99.90;;;;;;20763920;28;20084;-45
2022/01/24 15:49:22;;;;;;;6.45;2.92;;;5.50;99.90;;;;;;20772906;28;20509;-45
2022/01/24 15:59:22;;;;;;;11.30;3.90;;;5.40;99.90;;;;;;20804965;28;20296;-45
2022/01/24 16:09:23;;;;;;;9.00;2.85;;;5.30;99.90;;;;;;20792563;28;20671;-45
2022/01/24 16:19:26;;;;;;;10.70;4.93;;;5.30;99.90;;;;;;20804665;28;20049;-45
2022/01/24 16:29:28;;;;;;;8.45;3.53;;;5.30;99.90;;;;;;20801036;28;20686;-45
2022/01/24 16:39:35;;;;;;;8.38;3.88;;;5.30;99.90;;;;;;20799644;28;20492;-45
2022/01/24 16:49:41;;;;;;;14.53;7.13;;;5.20;99.90;;;;;;20762611;28;20058;-44
2022/01/24 16:59:43;;;;;;;9.45;4.20;;;5.20;99.90;;;;;;20803312;28;20042;-45
2022/01/24 17:09:44;;;;;;;10.77;4.15;;;5.20;99.90;;;;;;20819880;28;20056;-45
2022/01/24 17:19:45;;;;;;;13.02;4.30;;;5.20;99.90;;;;;;20807990;28;20042;-45
2022/01/24 17:29:46;;;;;;;9.25;3.95;;;5.10;99.90;;;;;;20812315;28;20300;-45
2022/01/24 17:39:47;;;;;;;15.20;5.10;;;5.10;99.90;;;;;;20796479;28;20041;-45
2022/01/24 17:49:48;;;;;;;8.88;4.18;;;5.00;99.90;;;;;;20806508;28;20095;-45
2022/01/24 17:59:49;;;;;;;10.07;3.60;;;5.00;99.90;;;;;;20810054;28;20642;-45
2022/01/24 18:09:51;;;;;;;11.68;4.78;;;4.90;99.90;;;;;;20743862;28;20117;-45
2022/01/24 18:19:51;;;;;;;10.10;4.07;;;5.00;99.90;;;;;;20806510;28;20044;-45
2022/01/24 18:29:52;;;;;;;10.73;3.83;;;5.00;99.90;;;;;;20826430;28;20639;-45
2022/01/24 18:39:54;;;;;;;11.43;4.47;;;4.90;99.90;;;;;;20806995;28;20128;-45
2022/01/24 18:49:55;;;;;;;11.07;4.90;;;5.00;99.90;;;;;;20840830;28;20061;-45
2022/01/24 18:59:56;;;;;;;15.25;5.45;;;4.90;99.90;;;;;;20870583;28;20522;-45
2022/01/24 19:09:57;;;;;;;12.47;5.43;;;4.80;99.90;;;;;;20874415;28;20469;-45
2022/01/24 19:23:07;;;;;;;14.02;6.13;;;4.80;99.90;;;;;;20805666;28;20801;-45
2022/01/24 19:30:21;;;;;;;16.15;6.18;;;4.80;99.90;;;;;;20855858;28;20064;-45
2022/01/24 19:40:22;;;;;;;12.57;5.70;;;4.80;99.90;;;;;;20834231;28;20719;-45
2022/01/24 19:50:24;;;;;;;13.75;5.80;;;4.80;99.90;;;;;;20836672;28;20484;-45
2022/01/24 20:00:25;;;;;;;12.18;5.97;;;4.80;99.90;;;;;;20832011;28;20044;-45
2022/01/24 20:10:26;;;;;;;16.50;6.25;;;4.70;99.90;;;;;;20844994;28;20037;-45
2022/01/24 20:20:27;;;;;;;19.35;7.78;;;4.80;99.90;;;;;;20834239;28;20376;-45
2022/01/24 20:30:28;;;;;;;18.90;6.35;;;4.80;99.90;;;;;;20841088;28;20050;-45
2022/01/24 20:40:30;;;;;;;19.85;7.15;;;4.80;99.90;;;;;;20841272;28;20551;-45
2022/01/24 20:50:33;;;;;;;18.45;7.05;;;4.80;99.90;;;;;;20845123;28;20073;-45
2022/01/24 21:00:38;;;;;;;19.75;7.60;;;4.80;99.90;;;;;;20848066;28;20045;-45
2022/01/24 21:10:39;;;;;;;15.00;6.82;;;4.80;99.90;;;;;;20850569;28;20048;-45
2022/01/24 21:20:39;;;;;;;14.93;6.57;;;4.70;99.90;;;;;;20843486;28;20049;-45
2022/01/24 21:30:40;;;;;;;17.90;7.10;;;4.70;99.90;;;;;;20852097;28;20851;-45
2022/01/24 21:40:45;;;;;;;13.85;5.70;;;4.70;99.90;;;;;;20852196;28;20261;-45
2022/01/24 21:50:45;;;;;;;18.05;7.05;;;4.70;99.90;;;;;;20742031;28;20049;-45
2022/01/24 22:00:46;;;;;;;24.05;8.75;;;4.70;99.90;;;;;;20715019;28;20042;-45
2022/01/24 22:10:48;;;;;;;19.55;8.30;;;4.70;99.90;;;;;;20710039;28;20046;-45
2022/01/24 22:20:49;;;;;;;17.77;7.72;;;4.70;99.90;;;;;;20709619;28;20410;-45
2022/01/24 22:30:50;;;;;;;15.55;5.80;;;4.70;99.90;;;;;;20701574;28;20501;-45
2022/01/24 22:51:21;;;;;;;19.75;7.38;;;4.70;99.90;;;;;;20718890;28;20046;-45
2022/01/24 23:01:23;;;;;;;20.60;7.55;;;4.70;99.90;;;;;;20723293;28;20037;-45
2022/01/24 23:11:24;;;;;;;22.55;7.75;;;4.70;99.90;;;;;;20702042;28;20045;-45
2022/01/24 23:21:25;;;;;;;20.75;8.15;;;4.60;99.90;;;;;;20706801;28;20077;-45
2022/01/24 23:31:26;;;;;;;24.43;8.17;;;4.60;99.90;;;;;;20719212;28;20063;-45
2022/01/24 23:41:29;;;;;;;20.55;7.50;;;4.60;99.90;;;;;;20746639;28;20807;-45
2022/01/24 23:51:30;;;;;;;21.42;7.07;;;4.60;99.90;;;;;;20777677;28;20141;-45
